Time;durP1;ratioP1;P1;durP2;ratioP2;P2;SDS_P1;SDS_P2;PMS_P1;PMS_P2;Temp;Humidity;BMP_temperature;BMP_pressure;BME280_temperature;BME280_humidity;BME280_pressure;Samples;Min_cycle;Max_cycle;Signal;HPM_P1;HPM_P2
2022/03/22 00:01:51;;;;;;;45.13;29.55;;;;;;;9.04;72.04;102847.22;5032500;28;20485;-70
2022/03/22 00:04:18;;;;;;;48.13;30.25;;;;;;;8.95;73.30;102831.16;5034614;28;20047;-70
2022/03/22 00:06:43;;;;;;;42.50;30.20;;;;;;;8.96;72.36;102836.38;5034596;28;20499;-70
2022/03/22 00:09:09;;;;;;;45.85;30.27;;;;;;;8.92;72.13;102840.44;5034986;28;20029;-69
2022/03/22 00:11:35;;;;;;;43.25;31.33;;;;;;;8.86;72.66;102839.25;5034721;28;20033;-72
2022/03/22 00:14:00;;;;;;;45.42;31.10;;;;;;;8.86;72.62;102838.38;5034676;28;20036;-69
2022/03/22 00:16:26;;;;;;;43.88;30.83;;;;;;;8.81;72.39;102840.75;5034810;28;20072;-71
2022/03/22 00:18:51;;;;;;;43.90;30.77;;;;;;;8.79;72.42;102843.63;5034403;28;20055;-72
2022/03/22 00:21:19;;;;;;;43.55;30.40;;;;;;;8.76;72.70;102843.09;5017036;28;20099;-70
2022/03/22 00:23:45;;;;;;;41.08;29.95;;;;;;;8.71;72.65;102832.81;5032951;28;20033;-70
2022/03/22 00:26:10;;;;;;;42.75;30.65;;;;;;;8.69;72.79;102834.81;5034656;28;20044;-71
2022/03/22 00:28:36;;;;;;;43.00;30.20;;;;;;;8.69;73.02;102841.03;5034493;28;20044;-70
2022/03/22 00:31:02;;;;;;;41.03;31.45;;;;;;;8.65;72.77;102841.53;5034603;28;20026;-71
2022/03/22 00:33:28;;;;;;;39.85;30.35;;;;;;;8.64;72.69;102850.66;5034413;28;20025;-71
2022/03/22 00:35:53;;;;;;;42.17;29.90;;;;;;;8.60;72.81;102846.56;5034014;28;20036;-69
2022/03/22 00:38:20;;;;;;;42.83;30.15;;;;;;;8.59;73.21;102843.03;5034829;28;20457;-69
2022/03/22 00:40:46;;;;;;;48.85;32.15;;;;;;;8.58;73.01;102854.00;5034146;28;20045;-70
2022/03/22 00:43:11;;;;;;;41.13;29.20;;;;;;;8.57;73.19;102853.13;5034142;28;20026;-72
2022/03/22 00:45:37;;;;;;;46.03;29.98;;;;;;;8.55;72.94;102857.88;5016073;28;20037;-73
2022/03/22 00:48:05;;;;;;;44.28;30.90;;;;;;;8.53;72.98;102857.19;5033901;28;20080;-73
2022/03/22 00:50:37;;;;;;;43.08;31.48;;;;;;;8.55;73.46;102852.47;5034235;28;20042;-71
2022/03/22 00:53:04;;;;;;;43.22;31.15;;;;;;;8.60;73.69;102849.28;5033775;28;20480;-71
2022/03/22 00:55:30;;;;;;;42.17;30.48;;;;;;;8.62;73.45;102842.72;5034017;28;20076;-69
2022/03/22 00:57:56;;;;;;;47.25;30.75;;;;;;;8.63;73.31;102846.25;5033899;28;20033;-72
2022/03/22 01:00:26;;;;;;;41.10;29.08;;;;;;;8.59;73.28;102851.13;5033761;28;20112;-68
2022/03/22 01:02:53;;;;;;;43.90;30.70;;;;;;;8.60;73.22;102854.69;5032195;28;20473;-68
2022/03/22 01:05:20;;;;;;;44.80;31.52;;;;;;;8.55;73.49;102852.47;5033989;28;20029;-70
2022/03/22 01:07:57;;;;;;;44.15;29.83;;;;;;;8.52;72.90;102855.50;5033739;28;20034;-71
2022/03/22 01:10:24;;;;;;;44.15;30.75;;;;;;;8.49;73.54;102853.13;5032998;28;20389;-69
2022/03/22 01:12:50;;;;;;;45.28;31.40;;;;;;;8.49;73.82;102853.13;5033156;28;20026;-72
2022/03/22 01:15:19;;;;;;;42.10;30.00;;;;;;;8.42;73.51;102857.44;5033694;28;20033;-70
2022/03/22 01:17:47;;;;;;;46.17;30.67;;;;;;;8.34;73.12;102853.69;5033348;28;20057;-71
2022/03/22 01:20:13;;;;;;;45.45;30.95;;;;;;;8.34;73.24;102856.38;5033680;28;20569;-72
2022/03/22 01:22:40;;;;;;;43.72;29.27;;;;;;;8.32;73.05;102857.56;5032987;28;20045;-70
2022/03/22 01:25:11;;;;;;;43.03;30.27;;;;;;;8.27;73.90;102858.03;5033734;28;20032;-72
2022/03/22 01:27:37;;;;;;;40.22;29.30;;;;;;;8.24;74.27;102858.34;5033334;28;20285;-72
2022/03/22 01:30:07;;;;;;;41.17;30.48;;;;;;;8.27;74.25;102859.88;5031882;28;20108;-69
2022/03/22 01:32:33;;;;;;;42.83;29.05;;;;;;;8.20;74.01;102850.72;5033123;28;20029;-71
2022/03/22 01:34:58;;;;;;;39.25;29.05;;;;;;;8.15;73.60;102862.00;5032913;28;20065;-68
2022/03/22 01:37:23;;;;;;;40.33;28.45;;;;;;;8.15;73.90;102865.56;5033359;28;20057;-70
2022/03/22 01:39:49;;;;;;;42.33;28.58;;;;;;;8.12;73.31;102865.88;5032795;28;20530;-70
2022/03/22 01:42:14;;;;;;;42.08;29.67;;;;;;;8.08;73.88;102864.50;5033039;28;20025;-72
2022/03/22 01:44:39;;;;;;;41.65;29.20;;;;;;;8.06;73.94;102858.44;5032959;28;20041;-72
2022/03/22 01:47:05;;;;;;;41.40;29.42;;;;;;;8.05;74.06;102866.69;5032861;28;20428;-71
2022/03/22 01:49:30;;;;;;;39.20;28.30;;;;;;;8.07;74.62;102857.41;5033134;28;20425;-71
2022/03/22 01:51:56;;;;;;;37.40;27.85;;;;;;;8.02;74.32;102856.19;5032654;28;20615;-72
2022/03/22 01:54:21;;;;;;;41.00;29.10;;;;;;;8.04;74.38;102857.72;5032767;28;20030;-72
2022/03/22 01:56:47;;;;;;;39.35;28.15;;;;;;;8.03;74.17;102857.88;5032769;28;20068;-71
2022/03/22 01:59:13;;;;;;;37.75;27.30;;;;;;;8.01;74.34;102854.50;5032901;28;20053;-71
2022/03/22 02:07:07;;;;;;;37.83;25.92;;;;;;;8.10;74.72;102846.28;5032913;28;20053;-71
2022/03/22 02:09:33;;;;;;;35.13;24.65;;;;;;;8.11;74.55;102844.47;5032777;28;20036;-70
2022/03/22 02:11:59;;;;;;;37.63;25.08;;;;;;;8.10;74.46;102848.16;5032609;28;20438;-71
2022/03/22 02:14:25;;;;;;;33.60;24.30;;;;;;;8.12;74.33;102847.00;5033094;28;20033;-69
2022/03/22 02:16:51;;;;;;;35.85;24.58;;;;;;;8.13;74.42;102843.28;5032482;28;20038;-70
2022/03/22 02:19:16;;;;;;;35.67;24.25;;;;;;;8.16;74.47;102836.72;5031289;28;20029;-70
2022/03/22 02:21:42;;;;;;;37.28;22.83;;;;;;;8.16;73.73;102840.25;5031613;28;20516;-69
2022/03/22 02:24:08;;;;;;;34.63;22.92;;;;;;;8.15;74.00;102835.91;5032351;28;20049;-71
2022/03/22 02:26:34;;;;;;;30.52;22.65;;;;;;;8.13;74.59;102837.06;5032545;28;20072;-69
2022/03/22 02:28:59;;;;;;;37.45;22.83;;;;;;;8.14;74.45;102839.59;5031800;28;20060;-71
2022/03/22 02:31:29;;;;;;;33.83;22.75;;;;;;;8.16;74.31;102834.88;5032530;28;20107;-69
2022/03/22 02:33:55;;;;;;;35.22;23.48;;;;;;;8.18;73.55;102836.56;5014661;28;20637;-70
2022/03/22 02:36:21;;;;;;;33.78;22.70;;;;;;;8.16;73.96;102836.72;5032175;28;20625;-72
2022/03/22 02:38:47;;;;;;;28.60;21.00;;;;;;;8.20;73.76;102832.72;5031985;28;20120;-70
2022/03/22 02:41:24;;;;;;;30.83;21.38;;;;;;;8.17;73.63;102838.44;5032247;28;20064;-68
2022/03/22 02:43:51;;;;;;;30.85;21.50;;;;;;;8.14;73.76;102841.44;5031949;28;20443;-71
2022/03/22 02:46:16;;;;;;;30.20;21.40;;;;;;;8.06;73.59;102834.16;5032449;28;20164;-69
2022/03/22 02:48:42;;;;;;;30.92;22.40;;;;;;;8.10;73.08;102838.22;5031498;28;20046;-72
2022/03/22 02:51:08;;;;;;;29.75;21.50;;;;;;;8.05;73.95;102845.09;5014554;28;20491;-72
2022/03/22 02:53:34;;;;;;;31.73;21.50;;;;;;;8.00;73.01;102842.84;5032013;28;20043;-71
2022/03/22 02:55:59;;;;;;;27.92;20.92;;;;;;;7.97;73.56;102843.19;5032026;28;20454;-70
2022/03/22 02:58:25;;;;;;;31.55;21.88;;;;;;;7.94;73.48;102838.97;5030929;28;20158;-69
2022/03/22 03:00:50;;;;;;;29.90;21.73;;;;;;;7.90;74.04;102837.59;5029461;28;20645;-70
2022/03/22 03:03:21;;;;;;;29.63;21.00;;;;;;;7.90;73.88;102844.84;5032411;28;20045;-69
2022/03/22 03:05:47;;;;;;;31.23;21.02;;;;;;;7.87;73.81;102843.28;5032028;28;20098;-72
2022/03/22 03:08:13;;;;;;;33.30;21.67;;;;;;;7.83;74.70;102844.59;5030897;28;20427;-72
2022/03/22 03:10:38;;;;;;;28.35;21.35;;;;;;;7.82;74.16;102842.94;5031905;28;20109;-72
2022/03/22 03:13:04;;;;;;;30.10;21.63;;;;;;;7.79;73.75;102843.25;5031593;28;20409;-70
2022/03/22 03:15:30;;;;;;;28.65;21.73;;;;;;;7.76;73.68;102847.09;5031725;28;20034;-70
2022/03/22 03:17:57;;;;;;;32.95;21.33;;;;;;;7.74;74.13;102843.69;5031611;28;20029;-70
2022/03/22 03:20:23;;;;;;;28.23;21.30;;;;;;;7.72;74.14;102850.25;5031606;28;20033;-71
2022/03/22 03:22:48;;;;;;;29.52;21.75;;;;;;;7.66;73.82;102846.34;5031646;28;20036;-70
2022/03/22 03:25:14;;;;;;;30.88;21.10;;;;;;;7.66;74.43;102850.91;5032062;28;20381;-76
2022/03/22 03:27:40;;;;;;;33.67;20.98;;;;;;;7.62;74.34;102855.72;5013878;28;20034;-74
2022/03/22 03:30:06;;;;;;;29.90;21.33;;;;;;;7.54;74.32;102851.13;5031146;28;20060;-70
2022/03/22 03:32:32;;;;;;;31.92;22.15;;;;;;;7.54;74.76;102852.97;5030942;28;20025;-70
2022/03/22 03:34:58;;;;;;;30.70;21.58;;;;;;;7.50;74.92;102856.97;5035450;28;20057;-71
2022/03/22 03:37:24;;;;;;;33.17;22.27;;;;;;;7.46;74.41;102856.47;5035452;28;20061;-75
2022/03/22 03:39:50;;;;;;;30.20;21.48;;;;;;;7.43;74.46;102859.47;5035272;28;20060;-70
2022/03/22 03:42:15;;;;;;;29.45;20.60;;;;;;;7.42;74.37;102863.97;5035805;28;20438;-71
2022/03/22 03:47:24;;;;;;;31.70;21.70;;;;;;;7.38;74.79;102876.09;5035470;28;20101;-71
2022/03/22 03:49:51;;;;;;;26.63;20.48;;;;;;;7.33;74.29;102864.91;5034845;28;20080;-70
2022/03/22 03:52:19;;;;;;;29.85;21.80;;;;;;;7.32;74.50;102875.84;5035357;28;20063;-71
2022/03/22 03:54:45;;;;;;;30.73;22.02;;;;;;;7.25;74.66;102871.06;5035302;28;20036;-71
2022/03/22 03:57:11;;;;;;;30.38;21.30;;;;;;;7.23;75.00;102878.47;5035603;28;20038;-70
2022/03/22 03:59:38;;;;;;;30.85;22.15;;;;;;;7.20;74.71;102873.38;5033770;28;20034;-71
2022/03/22 04:02:06;;;;;;;31.08;21.88;;;;;;;7.17;74.73;102873.69;5032713;28;20036;-71
2022/03/22 04:04:32;;;;;;;32.50;21.42;;;;;;;7.16;74.64;102880.06;5035182;28;20029;-71
2022/03/22 04:06:57;;;;;;;28.80;21.40;;;;;;;7.15;75.01;102872.97;5033623;28;20435;-72
2022/03/22 04:09:23;;;;;;;32.17;21.33;;;;;;;7.16;74.80;102876.53;5034733;28;20025;-68
2022/03/22 04:11:49;;;;;;;34.33;21.70;;;;;;;7.07;74.72;102878.28;5034683;28;20021;-70
2022/03/22 04:14:14;;;;;;;29.65;20.70;;;;;;;7.09;74.95;102881.66;5034967;28;20075;-70
2022/03/22 04:16:41;;;;;;;31.38;20.85;;;;;;;7.08;74.84;102879.97;5034497;28;20037;-71
2022/03/22 04:19:10;;;;;;;30.63;20.83;;;;;;;7.02;74.86;102884.13;5034484;28;20440;-69
2022/03/22 04:21:36;;;;;;;29.90;20.75;;;;;;;6.99;74.73;102887.13;5033598;28;20060;-71
2022/03/22 04:24:10;;;;;;;29.00;21.23;;;;;;;6.99;75.06;102886.25;5034782;28;20030;-70
2022/03/22 04:26:37;;;;;;;31.38;20.38;;;;;;;6.96;74.90;102886.56;5034943;28;20113;-69
2022/03/22 04:34:38;;;;;;;29.58;20.23;;;;;;;6.89;74.46;102881.78;5034570;28;20053;-68
2022/03/22 04:37:05;;;;;;;28.92;20.67;;;;;;;6.89;75.02;102878.25;5034374;28;20032;-69
2022/03/22 04:39:31;;;;;;;30.45;21.00;;;;;;;6.87;75.26;102881.09;5034247;28;20080;-70
2022/03/22 04:41:58;;;;;;;30.27;21.23;;;;;;;6.85;74.71;102877.69;5033973;28;20079;-72
2022/03/22 04:44:26;;;;;;;30.42;21.63;;;;;;;6.83;74.57;102874.31;5031907;28;20034;-70
2022/03/22 04:46:52;;;;;;;28.38;19.90;;;;;;;6.81;75.09;102884.41;5034162;28;20105;-71
2022/03/22 04:49:17;;;;;;;29.67;20.30;;;;;;;6.77;74.91;102887.53;5033803;28;20183;-72
2022/03/22 04:57:11;;;;;;;31.67;20.90;;;;;;;6.67;74.51;102895.63;5033992;28;20041;-69
2022/03/22 04:59:36;;;;;;;31.75;20.60;;;;;;;6.65;74.77;102894.94;5034113;28;20392;-69
2022/03/22 05:02:02;;;;;;;28.58;19.38;;;;;;;6.64;74.96;102898.63;5031609;28;20068;-68
2022/03/22 05:04:27;;;;;;;28.35;20.23;;;;;;;6.64;74.80;102895.94;5033251;28;20060;-72
2022/03/22 05:06:54;;;;;;;27.08;20.38;;;;;;;6.61;75.17;102893.53;5033844;28;20171;-71
2022/03/22 05:09:19;;;;;;;28.73;20.50;;;;;;;6.59;75.39;102895.53;5033380;28;20036;-73
2022/03/22 05:11:45;;;;;;;31.75;20.60;;;;;;;6.58;75.50;102902.75;5015889;28;20400;-71
2022/03/22 05:14:12;;;;;;;29.27;20.45;;;;;;;6.55;75.31;102895.84;5033372;28;20172;-69
2022/03/22 05:16:39;;;;;;;30.52;20.90;;;;;;;6.56;74.95;102902.06;5031944;28;20033;-71
2022/03/22 05:19:04;;;;;;;33.05;21.35;;;;;;;6.51;75.27;102902.50;5033309;28;20034;-69
2022/03/22 05:21:30;;;;;;;30.95;20.73;;;;;;;6.52;75.32;102901.53;5033665;28;20119;-71
2022/03/22 05:23:55;;;;;;;29.73;21.10;;;;;;;6.53;75.18;102916.66;5033151;28;20026;-69
2022/03/22 05:26:21;;;;;;;29.73;20.88;;;;;;;6.51;75.29;102907.88;5033295;28;20037;-72
2022/03/22 05:28:46;;;;;;;32.28;21.13;;;;;;;6.47;75.37;102909.16;5033274;28;20038;-70
2022/03/22 05:31:14;;;;;;;31.63;20.63;;;;;;;6.52;75.22;102923.03;5015629;28;20041;-70
2022/03/22 05:33:39;;;;;;;29.20;20.65;;;;;;;6.47;75.35;102914.53;5032359;28;20052;-71
2022/03/22 05:36:05;;;;;;;32.65;20.95;;;;;;;6.46;74.94;102920.06;5033185;28;20465;-72
2022/03/22 05:38:32;;;;;;;30.73;21.60;;;;;;;6.45;75.76;102921.94;5033033;28;20095;-71
2022/03/22 05:40:57;;;;;;;32.50;21.33;;;;;;;6.44;75.67;102919.38;5033122;28;20041;-69
2022/03/22 05:43:25;;;;;;;31.52;21.30;;;;;;;6.39;75.14;102925.19;5033627;28;20391;-69
2022/03/22 05:45:50;;;;;;;31.38;21.10;;;;;;;6.39;75.88;102927.91;5033272;28;20033;-70
2022/03/22 05:48:16;;;;;;;32.20;21.95;;;;;;;6.41;75.91;102931.28;5032776;28;20053;-69
2022/03/22 05:50:42;;;;;;;31.40;20.50;;;;;;;6.41;75.52;102925.91;5033091;28;20468;-69
2022/03/22 05:53:07;;;;;;;30.77;21.13;;;;;;;6.41;75.44;102922.38;5032901;28;20087;-71
2022/03/22 05:55:32;;;;;;;32.42;22.20;;;;;;;6.39;75.72;102923.34;5032788;28;20116;-70
2022/03/22 05:57:57;;;;;;;33.95;21.70;;;;;;;6.43;75.56;102923.06;5032463;28;20112;-68
2022/03/22 06:00:23;;;;;;;33.03;21.02;;;;;;;6.46;75.17;102926.31;5032762;28;20065;-75
2022/03/22 06:02:48;;;;;;;28.75;21.08;;;;;;;6.44;75.65;102925.59;5031327;28;20036;-71
2022/03/22 06:05:14;;;;;;;32.88;21.17;;;;;;;6.45;75.65;102926.47;5032483;28;20033;-72
2022/03/22 06:07:40;;;;;;;28.02;21.13;;;;;;;6.42;75.67;102932.97;5032846;28;20105;-71
2022/03/22 06:10:08;;;;;;;30.38;21.63;;;;;;;6.43;76.29;102934.69;5032286;28;20025;-70
2022/03/22 06:12:39;;;;;;;37.97;22.23;;;;;;;6.46;76.37;102929.00;5032792;28;20098;-72
2022/03/22 06:15:15;;;;;;;32.05;21.88;;;;;;;6.50;75.69;102938.47;5032464;28;20021;-73
2022/03/22 06:17:50;;;;;;;35.78;21.25;;;;;;;6.51;76.20;102937.47;5016247;28;20037;-70
2022/03/22 06:20:17;;;;;;;33.05;21.55;;;;;;;6.55;76.46;102933.50;5032608;28;20111;-73
2022/03/22 06:22:45;;;;;;;34.67;21.85;;;;;;;6.57;76.95;102936.88;5032432;28;20468;-71
2022/03/22 06:25:11;;;;;;;31.70;22.40;;;;;;;6.66;76.42;102940.53;5032431;28;20108;-72
2022/03/22 06:27:37;;;;;;;33.45;22.23;;;;;;;6.65;76.38;102933.44;5032316;28;20034;-69
2022/03/22 06:30:07;;;;;;;32.70;22.05;;;;;;;6.79;76.55;102942.03;5032416;28;20096;-70
2022/03/22 06:32:50;;;;;;;32.72;22.25;;;;;;;6.84;76.65;102942.44;5032566;28;20029;-68
2022/03/22 06:35:20;;;;;;;32.42;21.88;;;;;;;6.87;76.68;102943.00;5031992;28;20025;-70
2022/03/22 06:37:47;;;;;;;33.72;22.52;;;;;;;6.91;76.61;102941.72;5031207;28;20467;-69
2022/03/22 06:40:15;;;;;;;32.17;22.30;;;;;;;6.96;76.17;102948.47;5032366;28;20389;-70
2022/03/22 06:42:40;;;;;;;33.47;22.80;;;;;;;7.00;75.93;102939.94;5032140;28;20037;-70
2022/03/22 06:45:07;;;;;;;31.73;22.98;;;;;;;7.09;75.83;102949.81;5032324;28;20030;-73
2022/03/22 06:47:34;;;;;;;32.72;23.10;;;;;;;7.14;76.15;102949.38;5032108;28;20057;-72
2022/03/22 06:50:00;;;;;;;32.67;22.38;;;;;;;7.20;76.51;102950.59;5031586;28;20088;-72
2022/03/22 06:52:26;;;;;;;34.47;22.85;;;;;;;7.25;76.09;102957.25;5032156;28;20040;-70
2022/03/22 06:54:51;;;;;;;37.95;23.35;;;;;;;7.32;75.39;102946.69;5032114;28;20033;-69
2022/03/22 06:57:17;;;;;;;36.38;23.58;;;;;;;7.39;75.48;102955.88;5032179;28;20492;-71
2022/03/22 06:59:42;;;;;;;40.33;24.35;;;;;;;7.48;75.41;102951.44;5032026;28;20038;-71
2022/03/22 07:02:08;;;;;;;35.63;23.88;;;;;;;7.58;74.80;102956.75;5029843;28;20026;-72
2022/03/22 07:04:33;;;;;;;41.95;24.20;;;;;;;7.63;74.93;102959.81;5032310;28;20062;-72
2022/03/22 07:06:59;;;;;;;36.72;23.33;;;;;;;7.72;73.43;102964.28;5031798;28;20128;-72
2022/03/22 07:09:24;;;;;;;35.00;24.05;;;;;;;7.80;73.29;102955.44;5035545;28;20491;-70
2022/03/22 07:11:50;;;;;;;35.83;23.85;;;;;;;7.84;74.43;102962.22;5035992;28;20045;-71
2022/03/22 07:14:19;;;;;;;34.65;23.92;;;;;;;7.89;73.12;102959.88;5035511;28;20033;-72
2022/03/22 07:16:48;;;;;;;35.47;24.23;;;;;;;7.98;73.54;102964.34;5035853;28;20103;-72
2022/03/22 07:19:17;;;;;;;32.92;23.08;;;;;;;8.04;73.24;102964.75;5034229;28;20037;-74
2022/03/22 07:21:44;;;;;;;36.95;23.75;;;;;;;8.11;73.20;102957.72;5036013;28;20385;-74
2022/03/22 07:24:11;;;;;;;38.08;23.77;;;;;;;8.21;71.94;102969.25;5035436;28;20029;-73
2022/03/22 07:26:37;;;;;;;36.03;23.15;;;;;;;8.26;72.56;102964.25;5035567;28;20043;-73
2022/03/22 07:29:03;;;;;;;37.58;22.67;;;;;;;8.36;71.98;102965.97;5035348;28;20040;-70
2022/03/22 07:31:29;;;;;;;40.50;24.17;;;;;;;8.43;71.32;102959.78;5035552;28;20037;-71
2022/03/22 07:33:54;;;;;;;34.65;23.73;;;;;;;8.50;71.32;102960.06;5035497;28;20033;-69
2022/03/22 07:36:19;;;;;;;36.65;24.27;;;;;;;8.58;71.29;102965.50;5035456;28;20029;-71
2022/03/22 07:38:45;;;;;;;35.65;24.58;;;;;;;8.65;70.48;102969.25;5035360;28;20033;-70
2022/03/22 07:41:13;;;;;;;37.80;22.65;;;;;;;8.75;70.77;102969.13;5035463;28;20021;-72
2022/03/22 07:43:40;;;;;;;36.88;23.55;;;;;;;8.86;70.21;102973.38;5035505;28;20026;-72
2022/03/22 07:46:05;;;;;;;34.30;22.90;;;;;;;8.92;70.04;102974.59;5035462;28;20038;-71
2022/03/22 07:48:30;;;;;;;32.20;23.92;;;;;;;9.03;69.39;102968.94;5035170;28;20045;-71
2022/03/22 07:53:42;;;;;;;32.10;22.98;;;;;;;9.15;69.85;102967.63;5034938;28;20059;-69
2022/03/22 07:56:08;;;;;;;37.03;22.70;;;;;;;9.25;69.03;102964.75;5035045;28;20033;-72
2022/03/22 07:58:33;;;;;;;36.05;23.08;;;;;;;9.36;68.23;102972.56;5035335;28;20052;-73
2022/03/22 08:00:58;;;;;;;32.83;22.65;;;;;;;9.44;68.30;102973.63;5032879;28;20029;-70
2022/03/22 08:03:23;;;;;;;32.95;22.60;;;;;;;9.56;67.70;102975.00;5034799;28;20045;-73
2022/03/22 08:05:49;;;;;;;35.67;23.27;;;;;;;9.65;66.57;102978.56;5035086;28;20025;-69
2022/03/22 08:08:15;;;;;;;36.85;22.55;;;;;;;9.72;66.71;102969.59;5034654;28;20033;-70
2022/03/22 08:10:42;;;;;;;37.20;23.77;;;;;;;9.82;66.52;102974.00;5035077;28;20030;-69
2022/03/22 08:13:08;;;;;;;39.20;22.40;;;;;;;9.86;66.93;102975.38;5034366;28;20044;-72
2022/03/22 08:15:34;;;;;;;34.88;22.70;;;;;;;9.97;65.73;102983.13;5034970;28;20037;-72
2022/03/22 08:17:59;;;;;;;37.10;23.25;;;;;;;10.03;65.44;102977.06;5034966;28;20401;-70
2022/03/22 08:20:27;;;;;;;35.47;22.55;;;;;;;10.13;65.55;102978.72;5033376;28;20457;-73
2022/03/22 08:23:04;;;;;;;33.33;22.98;;;;;;;10.19;66.08;102984.31;5034558;28;20091;-71
2022/03/22 08:25:38;;;;;;;34.20;21.80;;;;;;;10.22;65.02;102983.13;5034464;28;20108;-74
2022/03/22 08:28:07;;;;;;;33.92;22.23;;;;;;;10.33;64.20;102984.66;5034454;28;20079;-72
2022/03/22 08:30:33;;;;;;;34.53;22.40;;;;;;;10.44;63.54;102987.88;5034377;28;20444;-71
2022/03/22 08:33:00;;;;;;;36.25;22.77;;;;;;;10.57;63.58;102975.69;5034226;28;20033;-74
2022/03/22 08:35:27;;;;;;;34.90;21.65;;;;;;;10.64;62.91;102980.22;5034470;28;20045;-71
2022/03/22 08:37:54;;;;;;;39.90;22.85;;;;;;;10.69;63.02;102974.28;5034608;28;20025;-71
2022/03/22 08:40:20;;;;;;;34.97;21.75;;;;;;;10.79;61.96;102979.50;5033836;28;20123;-74
2022/03/22 08:42:47;;;;;;;33.75;20.98;;;;;;;10.84;61.22;102978.97;5033228;28;20080;-71
2022/03/22 08:45:18;;;;;;;38.03;22.35;;;;;;;10.88;62.23;102985.75;5034155;28;20030;-73
2022/03/22 08:47:45;;;;;;;56.63;23.40;;;;;;;11.03;60.79;102981.28;5034177;28;20036;-71
2022/03/22 08:50:13;;;;;;;69.60;23.38;;;;;;;11.16;60.21;102980.72;5016653;28;20087;-70
2022/03/22 08:52:39;;;;;;;50.65;21.67;;;;;;;11.25;60.66;102976.94;5033480;28;20578;-71
2022/03/22 08:55:07;;;;;;;32.65;21.98;;;;;;;11.36;60.50;102978.41;5033523;28;20595;-72
2022/03/22 08:57:35;;;;;;;34.45;22.63;;;;;;;11.49;59.56;102984.09;5032793;28;20519;-72
2022/03/22 09:00:05;;;;;;;34.13;21.83;;;;;;;11.58;59.31;102979.47;5033048;28;20388;-72
2022/03/22 09:02:31;;;;;;;35.22;21.63;;;;;;;11.61;60.41;102981.81;5014009;28;20041;-72
2022/03/22 09:07:40;;;;;;;30.27;20.90;;;;;;;11.85;57.37;102978.09;5034029;28;20044;-71
2022/03/22 09:10:06;;;;;;;33.88;22.67;;;;;;;11.98;57.54;102976.66;5033798;28;20400;-75
2022/03/22 09:12:31;;;;;;;40.08;21.58;;;;;;;12.07;57.17;102972.84;5033479;28;20033;-75
2022/03/22 09:14:57;;;;;;;32.65;21.40;;;;;;;12.12;56.39;102984.00;5033455;28;20045;-72
2022/03/22 09:17:22;;;;;;;34.20;20.88;;;;;;;12.19;56.05;102979.53;5033458;28;20408;-72
2022/03/22 09:19:47;;;;;;;32.97;22.00;;;;;;;12.26;55.71;102978.78;5033856;28;20030;-72
2022/03/22 09:22:14;;;;;;;35.88;21.50;;;;;;;12.34;55.28;102976.84;5033460;28;20025;-71
2022/03/22 09:24:39;;;;;;;36.72;21.70;;;;;;;12.48;54.41;102974.34;5033631;28;20061;-70
2022/03/22 09:27:04;;;;;;;31.58;21.13;;;;;;;12.55;54.47;102981.56;5033530;28;20119;-73
2022/03/22 09:29:30;;;;;;;30.45;21.33;;;;;;;12.56;54.83;102971.53;5032058;28;20033;-72
2022/03/22 09:31:56;;;;;;;34.38;21.98;;;;;;;12.68;54.87;102980.91;5033111;28;20026;-71
2022/03/22 09:34:25;;;;;;;35.20;21.67;;;;;;;12.71;53.97;102969.69;5032289;28;20107;-71
2022/03/22 09:36:51;;;;;;;30.88;21.17;;;;;;;12.76;53.32;102975.38;5033061;28;20025;-71
2022/03/22 09:39:17;;;;;;;35.17;21.30;;;;;;;12.80;54.27;102964.97;5032591;28;20035;-72
2022/03/22 09:41:44;;;;;;;34.45;21.52;;;;;;;12.84;54.38;102971.72;5033410;28;20025;-71
2022/03/22 09:44:11;;;;;;;33.92;22.92;;;;;;;12.89;53.98;102969.31;5033109;28;20034;-73
2022/03/22 09:46:37;;;;;;;32.63;22.55;;;;;;;12.92;53.73;102968.94;5032755;28;20039;-71
2022/03/22 09:49:03;;;;;;;32.78;21.95;;;;;;;13.01;53.81;102966.91;5032498;28;20050;-72
2022/03/22 09:51:48;;;;;;;33.60;21.23;;;;;;;13.16;53.16;102969.63;5032641;28;20026;-72
2022/03/22 09:54:19;;;;;;;39.58;22.33;;;;;;;13.22;52.88;102963.41;5032992;28;20065;-74
2022/03/22 09:56:46;;;;;;;36.55;22.08;;;;;;;13.25;52.55;102965.75;5033109;28;20026;-73
2022/03/22 09:59:14;;;;;;;36.00;21.80;;;;;;;13.32;52.34;102962.28;5032306;28;20037;-71
2022/03/22 10:01:39;;;;;;;36.65;22.20;;;;;;;13.44;53.18;102966.22;5030680;28;20026;-71
2022/03/22 10:04:07;;;;;;;36.92;22.10;;;;;;;13.45;51.97;102967.88;5033039;28;20350;-73
2022/03/22 10:06:34;;;;;;;35.20;21.65;;;;;;;13.48;51.33;102970.22;4998551;28;20499;-73
2022/03/22 10:09:00;;;;;;;31.92;22.33;;;;;;;13.51;51.36;102961.69;5032615;28;20029;-72
2022/03/22 10:11:39;;;;;;;36.75;23.40;;;;;;;13.57;52.14;102963.66;5032129;28;20444;-72
2022/03/22 10:14:05;;;;;;;33.13;22.05;;;;;;;13.64;49.70;102952.81;5032754;28;20591;-73
2022/03/22 10:16:30;;;;;;;33.65;22.27;;;;;;;13.68;50.40;102956.84;5032647;28;20048;-72
2022/03/22 10:18:56;;;;;;;34.50;21.33;;;;;;;13.69;50.64;102952.25;5032929;28;20646;-72
2022/03/22 10:21:21;;;;;;;34.95;21.50;;;;;;;13.78;48.74;102953.78;5032501;28;20029;-72
2022/03/22 10:23:50;;;;;;;32.92;21.73;;;;;;;13.79;49.64;102947.31;5032729;28;20476;-73
2022/03/22 10:26:16;;;;;;;35.72;21.77;;;;;;;13.86;48.61;102952.81;5030915;28;20393;-73
2022/03/22 10:28:50;;;;;;;31.88;20.77;;;;;;;13.90;49.16;102945.94;5032379;28;20029;-70
2022/03/22 10:31:16;;;;;;;34.95;21.85;;;;;;;14.00;47.82;102950.00;5032454;28;20029;-71
2022/03/22 10:33:52;;;;;;;35.22;22.20;;;;;;;14.12;49.71;102949.50;5032600;28;20033;-74
2022/03/22 10:36:21;;;;;;;33.28;21.92;;;;;;;14.17;48.70;102949.72;5032209;28;20032;-70
2022/03/22 10:38:57;;;;;;;33.80;22.15;;;;;;;14.28;47.85;102946.47;5031989;28;20037;-73
2022/03/22 10:41:31;;;;;;;33.83;22.15;;;;;;;14.37;48.27;102944.41;5032221;28;20094;-69
2022/03/22 10:44:17;;;;;;;35.63;22.45;;;;;;;14.42;47.88;102943.81;5031587;28;20082;-70
2022/03/22 10:46:45;;;;;;;32.10;20.73;;;;;;;14.49;47.77;102942.00;5032478;28;20029;-74
2022/03/22 10:49:14;;;;;;;33.40;21.50;;;;;;;14.56;47.25;102942.03;5014831;28;20053;-72
2022/03/22 10:51:47;;;;;;;34.45;20.83;;;;;;;14.69;47.35;102940.25;5031025;28;20387;-72
2022/03/22 10:54:16;;;;;;;34.40;20.75;;;;;;;14.80;46.80;102940.75;5031687;28;20175;-71
2022/03/22 10:56:50;;;;;;;40.67;20.70;;;;;;;14.92;46.83;102935.56;5032020;28;20072;-71
2022/03/22 10:59:18;;;;;;;31.02;19.75;;;;;;;14.96;47.97;102940.41;5032064;28;20030;-71
2022/03/22 11:01:46;;;;;;;30.77;19.92;;;;;;;15.06;45.18;102937.28;5030026;28;20034;-72
2022/03/22 11:04:16;;;;;;;34.63;19.48;;;;;;;15.20;46.33;102933.56;5014524;28;20080;-73
2022/03/22 11:06:43;;;;;;;32.95;19.23;;;;;;;15.32;46.26;102935.69;5015071;28;20029;-71
2022/03/22 11:09:09;;;;;;;34.05;18.95;;;;;;;15.42;45.12;102936.13;5031741;28;20388;-73
2022/03/22 11:11:36;;;;;;;31.27;18.95;;;;;;;15.49;45.33;102933.41;5032080;28;20034;-74
2022/03/22 11:14:02;;;;;;;32.53;19.90;;;;;;;15.62;45.35;102929.88;5031910;28;20108;-72
2022/03/22 11:16:31;;;;;;;29.52;18.08;;;;;;;15.69;44.60;102931.56;5032011;28;20053;-73
2022/03/22 11:19:00;;;;;;;33.95;19.48;;;;;;;15.82;43.62;102929.91;5014214;28;20033;-72
2022/03/22 11:21:28;;;;;;;29.08;18.10;;;;;;;15.94;43.77;102922.75;5013958;28;20036;-73
2022/03/22 11:24:24;;;;;;;30.42;17.30;;;;;;;16.01;46.04;102933.69;5032176;28;20033;-73
2022/03/22 11:26:55;;;;;;;25.55;16.30;;;;;;;16.11;43.82;102929.50;5015892;28;20123;-72
2022/03/22 11:29:24;;;;;;;27.67;16.40;;;;;;;16.20;43.61;102924.66;5031832;28;20071;-71
2022/03/22 11:34:35;;;;;;;30.10;18.58;;;;;;;16.32;43.84;102927.59;5031600;28;20102;-72
2022/03/22 11:37:01;;;;;;;27.75;17.90;;;;;;;16.35;42.45;102923.56;5031967;28;20033;-73
2022/03/22 11:42:15;;;;;;;33.00;18.35;;;;;;;16.45;42.34;102913.88;5031748;28;20120;-71
2022/03/22 11:44:41;;;;;;;33.63;17.73;;;;;;;16.59;41.97;102906.50;5014180;28;20128;-71